sensor_id;sensor_type;location;lat;lon;timestamp;temperature;humidity
11559;DHT22;5835;42.930;25.178;2023-03-14T00:02:26;2.10;1.00
11559;DHT22;5835;42.930;25.178;2023-03-14T00:04:54;1.90;1.00
11559;DHT22;5835;42.930;25.178;2023-03-14T00:07:22;1.80;1.00
11559;DHT22;5835;42.930;25.178;2023-03-14T00:09:52;1.60;1.00
11559;DHT22;5835;42.930;25.178;2023-03-14T00:12:22;1.40;1.00
11559;DHT22;5835;42.930;25.178;2023-03-14T00:14:50;1.30;1.00
11559;DHT22;5835;42.930;25.178;2023-03-14T00:17:17;1.30;1.00
11559;DHT22;5835;42.930;25.178;2023-03-14T00:19:45;1.40;1.00
11559;DHT22;5835;42.930;25.178;2023-03-14T00:22:13;1.40;1.00
11559;DHT22;5835;42.930;25.178;2023-03-14T00:24:40;1.30;1.00
11559;DHT22;5835;42.930;25.178;2023-03-14T00:27:09;1.30;1.00
11559;DHT22;5835;42.930;25.178;2023-03-14T00:29:37;1.40;1.00
11559;DHT22;5835;42.930;25.178;2023-03-14T00:32:05;1.50;53.30
11559;DHT22;5835;42.930;25.178;2023-03-14T00:34:33;1.40;1.00
11559;DHT22;5835;42.930;25.178;2023-03-14T00:37:00;1.30;1.00
11559;DHT22;5835;42.930;25.178;2023-03-14T00:39:28;1.30;25.10
11559;DHT22;5835;42.930;25.178;2023-03-14T00:41:55;1.30;84.60
11559;DHT22;5835;42.930;25.178;2023-03-14T00:44:25;1.10;99.90
11559;DHT22;5835;42.930;25.178;2023-03-14T00:46:52;0.90;99.90
11559;DHT22;5835;42.930;25.178;2023-03-14T00:49:20;0.80;1.00
11559;DHT22;5835;42.930;25.178;2023-03-14T00:51:47;1.00;1.00
11559;DHT22;5835;42.930;25.178;2023-03-14T00:54:15;0.90;84.50
11559;DHT22;5835;42.930;25.178;2023-03-14T00:56:42;0.90;99.90
11559;DHT22;5835;42.930;25.178;2023-03-14T00:59:10;0.90;99.90
11559;DHT22;5835;42.930;25.178;2023-03-14T01:01:39;0.90;1.00
11559;DHT22;5835;42.930;25.178;2023-03-14T01:04:07;1.00;1.00
11559;DHT22;5835;42.930;25.178;2023-03-14T01:06:35;0.90;1.00
11559;DHT22;5835;42.930;25.178;2023-03-14T01:09:03;0.90;99.90
11559;DHT22;5835;42.930;25.178;2023-03-14T01:11:32;0.80;1.00
11559;DHT22;5835;42.930;25.178;2023-03-14T01:14:01;1.00;99.90
11559;DHT22;5835;42.930;25.178;2023-03-14T01:16:31;1.20;99.90
11559;DHT22;5835;42.930;25.178;2023-03-14T01:19:00;1.20;99.90
11559;DHT22;5835;42.930;25.178;2023-03-14T01:21:29;1.20;99.90
11559;DHT22;5835;42.930;25.178;2023-03-14T01:23:58;1.00;99.90
11559;DHT22;5835;42.930;25.178;2023-03-14T01:26:28;1.00;99.90
11559;DHT22;5835;42.930;25.178;2023-03-14T01:28:56;0.70;1.00
11559;DHT22;5835;42.930;25.178;2023-03-14T01:31:25;0.50;1.00
11559;DHT22;5835;42.930;25.178;2023-03-14T01:33:53;0.40;88.70
11559;DHT22;5835;42.930;25.178;2023-03-14T01:36:21;0.30;99.90
11559;DHT22;5835;42.930;25.178;2023-03-14T01:38:49;0.30;99.90
11559;DHT22;5835;42.930;25.178;2023-03-14T01:41:18;0.40;99.90
11559;DHT22;5835;42.930;25.178;2023-03-14T01:43:47;0.30;99.90
11559;DHT22;5835;42.930;25.178;2023-03-14T01:46:37;0.30;1.00
11559;DHT22;5835;42.930;25.178;2023-03-14T01:49:12;0.20;1.00
11559;DHT22;5835;42.930;25.178;2023-03-14T01:51:46;0.50;99.90
11559;DHT22;5835;42.930;25.178;2023-03-14T01:54:18;0.60;1.00
11559;DHT22;5835;42.930;25.178;2023-03-14T01:56:50;0.70;1.00
11559;DHT22;5835;42.930;25.178;2023-03-14T01:59:18;0.60;1.00
11559;DHT22;5835;42.930;25.178;2023-03-14T02:01:47;0.50;1.00
11559;DHT22;5835;42.930;25.178;2023-03-14T02:04:17;0.50;1.00
11559;DHT22;5835;42.930;25.178;2023-03-14T02:06:53;0.50;1.00
11559;DHT22;5835;42.930;25.178;2023-03-14T02:09:22;0.50;99.90
11559;DHT22;5835;42.930;25.178;2023-03-14T02:11:50;0.60;25.30
11559;DHT22;5835;42.930;25.178;2023-03-14T02:14:28;0.40;64.50
11559;DHT22;5835;42.930;25.178;2023-03-14T02:16:57;0.30;99.90
11559;DHT22;5835;42.930;25.178;2023-03-14T02:19:38;0.30;99.90
11559;DHT22;5835;42.930;25.178;2023-03-14T02:22:09;0.40;48.60
11559;DHT22;5835;42.930;25.178;2023-03-14T02:24:45;0.40;99.90
11559;DHT22;5835;42.930;25.178;2023-03-14T02:27:17;0.50;99.90
11559;DHT22;5835;42.930;25.178;2023-03-14T02:29:49;0.50;99.90
11559;DHT22;5835;42.930;25.178;2023-03-14T02:32:20;0.40;1.00
11559;DHT22;5835;42.930;25.178;2023-03-14T02:34:51;0.20;71.70
11559;DHT22;5835;42.930;25.178;2023-03-14T02:37:21;0.00;1.00
11559;DHT22;5835;42.930;25.178;2023-03-14T02:39:49;-0.40;99.90
11559;DHT22;5835;42.930;25.178;2023-03-14T02:42:18;-0.80;1.00
11559;DHT22;5835;42.930;25.178;2023-03-14T02:44:51;-1.20;99.90
11559;DHT22;5835;42.930;25.178;2023-03-14T02:47:25;-1.20;1.00
11559;DHT22;5835;42.930;25.178;2023-03-14T02:49:58;-1.00;1.00
11559;DHT22;5835;42.930;25.178;2023-03-14T02:52:26;-0.90;1.00
11559;DHT22;5835;42.930;25.178;2023-03-14T02:54:54;-0.90;99.90
11559;DHT22;5835;42.930;25.178;2023-03-14T02:57:27;-0.80;1.00
11559;DHT22;5835;42.930;25.178;2023-03-14T02:59:58;-0.70;99.90
11559;DHT22;5835;42.930;25.178;2023-03-14T03:02:25;-0.80;99.90
11559;DHT22;5835;42.930;25.178;2023-03-14T03:04:53;-0.60;99.90
11559;DHT22;5835;42.930;25.178;2023-03-14T03:07:20;-0.50;99.90
11559;DHT22;5835;42.930;25.178;2023-03-14T03:09:48;-0.50;99.90
11559;DHT22;5835;42.930;25.178;2023-03-14T03:12:15;-0.40;42.30
11559;DHT22;5835;42.930;25.178;2023-03-14T03:14:44;-0.40;1.00
11559;DHT22;5835;42.930;25.178;2023-03-14T03:17:11;-0.30;94.10
11559;DHT22;5835;42.930;25.178;2023-03-14T03:19:39;-0.30;99.90
11559;DHT22;5835;42.930;25.178;2023-03-14T03:22:07;-0.10;1.00
11559;DHT22;5835;42.930;25.178;2023-03-14T03:24:34;0.00;99.90
11559;DHT22;5835;42.930;25.178;2023-03-14T03:27:02;0.10;99.90
11559;DHT22;5835;42.930;25.178;2023-03-14T03:29:29;0.00;99.90
11559;DHT22;5835;42.930;25.178;2023-03-14T03:31:58;-0.20;99.90
11559;DHT22;5835;42.930;25.178;2023-03-14T03:34:27;-0.30;99.90
11559;DHT22;5835;42.930;25.178;2023-03-14T03:36:56;-0.50;1.00
11559;DHT22;5835;42.930;25.178;2023-03-14T03:39:24;-0.60;99.90
11559;DHT22;5835;42.930;25.178;2023-03-14T03:41:51;-0.70;1.00
11559;DHT22;5835;42.930;25.178;2023-03-14T03:44:18;-0.80;99.90
11559;DHT22;5835;42.930;25.178;2023-03-14T03:46:46;-0.90;1.00
11559;DHT22;5835;42.930;25.178;2023-03-14T03:49:15;-0.90;1.00
11559;DHT22;5835;42.930;25.178;2023-03-14T03:51:43;-0.90;1.00
11559;DHT22;5835;42.930;25.178;2023-03-14T03:54:10;-0.90;99.90
11559;DHT22;5835;42.930;25.178;2023-03-14T03:56:38;-0.90;53.80
11559;DHT22;5835;42.930;25.178;2023-03-14T03:59:05;-0.90;1.00
11559;DHT22;5835;42.930;25.178;2023-03-14T04:01:32;-1.00;1.00
11559;DHT22;5835;42.930;25.178;2023-03-14T04:04:00;-0.90;1.00
11559;DHT22;5835;42.930;25.178;2023-03-14T04:06:29;-0.90;99.90
11559;DHT22;5835;42.930;25.178;2023-03-14T04:08:57;-0.90;1.00
11559;DHT22;5835;42.930;25.178;2023-03-14T04:11:25;-0.80;1.00
11559;DHT22;5835;42.930;25.178;2023-03-14T04:13:54;-0.80;63.40
11559;DHT22;5835;42.930;25.178;2023-03-14T04:16:23;-0.70;99.90
11559;DHT22;5835;42.930;25.178;2023-03-14T04:18:52;-0.60;99.90
11559;DHT22;5835;42.930;25.178;2023-03-14T04:21:19;-0.50;1.00
11559;DHT22;5835;42.930;25.178;2023-03-14T04:23:48;-0.50;99.90
11559;DHT22;5835;42.930;25.178;2023-03-14T04:26:16;-0.50;99.90
11559;DHT22;5835;42.930;25.178;2023-03-14T04:28:44;-0.50;1.00
11559;DHT22;5835;42.930;25.178;2023-03-14T04:31:14;-0.50;1.00
11559;DHT22;5835;42.930;25.178;2023-03-14T04:33:42;-0.50;1.00
11559;DHT22;5835;42.930;25.178;2023-03-14T04:36:10;-0.50;55.60
11559;DHT22;5835;42.930;25.178;2023-03-14T04:38:37;-0.60;89.10
11559;DHT22;5835;42.930;25.178;2023-03-14T04:41:06;-0.60;99.90
11559;DHT22;5835;42.930;25.178;2023-03-14T04:43:34;-0.70;1.00
11559;DHT22;5835;42.930;25.178;2023-03-14T04:46:02;-0.60;1.00
11559;DHT22;5835;42.930;25.178;2023-03-14T04:48:30;-0.70;99.90
11559;DHT22;5835;42.930;25.178;2023-03-14T04:50:57;-0.70;1.00
11559;DHT22;5835;42.930;25.178;2023-03-14T04:53:25;-0.90;99.90
11559;DHT22;5835;42.930;25.178;2023-03-14T04:55:54;-1.00;1.00
11559;DHT22;5835;42.930;25.178;2023-03-14T04:58:24;-1.00;99.90
11559;DHT22;5835;42.930;25.178;2023-03-14T05:00:51;-1.30;99.90
11559;DHT22;5835;42.930;25.178;2023-03-14T05:03:19;-1.40;1.00
11559;DHT22;5835;42.930;25.178;2023-03-14T05:05:47;-1.40;99.90
11559;DHT22;5835;42.930;25.178;2023-03-14T05:08:14;-1.60;99.90
11559;DHT22;5835;42.930;25.178;2023-03-14T05:10:42;-1.60;1.00
11559;DHT22;5835;42.930;25.178;2023-03-14T05:13:09;-1.60;1.00
11559;DHT22;5835;42.930;25.178;2023-03-14T05:15:38;-1.50;1.00
11559;DHT22;5835;42.930;25.178;2023-03-14T05:18:05;-1.50;1.00
11559;DHT22;5835;42.930;25.178;2023-03-14T05:20:33;-1.40;1.00
11559;DHT22;5835;42.930;25.178;2023-03-14T05:23:01;-1.30;1.00
11559;DHT22;5835;42.930;25.178;2023-03-14T05:25:29;-1.30;1.00
11559;DHT22;5835;42.930;25.178;2023-03-14T05:27:56;-1.20;1.00
11559;DHT22;5835;42.930;25.178;2023-03-14T05:30:24;-1.10;1.00
11559;DHT22;5835;42.930;25.178;2023-03-14T05:32:53;-1.00;1.00
11559;DHT22;5835;42.930;25.178;2023-03-14T05:35:20;-0.80;1.00
11559;DHT22;5835;42.930;25.178;2023-03-14T05:37:48;-0.60;1.00
11559;DHT22;5835;42.930;25.178;2023-03-14T05:40:16;-0.40;99.90
11559;DHT22;5835;42.930;25.178;2023-03-14T05:42:43;-0.20;99.90
11559;DHT22;5835;42.930;25.178;2023-03-14T05:45:11;0.00;1.00
11559;DHT22;5835;42.930;25.178;2023-03-14T05:47:38;0.20;1.00
11559;DHT22;5835;42.930;25.178;2023-03-14T05:50:09;0.30;99.90
11559;DHT22;5835;42.930;25.178;2023-03-14T05:52:36;0.40;1.00
11559;DHT22;5835;42.930;25.178;2023-03-14T05:55:05;0.70;99.90
11559;DHT22;5835;42.930;25.178;2023-03-14T05:57:32;0.80;92.00
11559;DHT22;5835;42.930;25.178;2023-03-14T06:00:00;0.80;1.00
11559;DHT22;5835;42.930;25.178;2023-03-14T06:02:28;0.70;1.00
11559;DHT22;5835;42.930;25.178;2023-03-14T06:04:55;0.50;1.00
11559;DHT22;5835;42.930;25.178;2023-03-14T06:07:25;0.50;99.90
11559;DHT22;5835;42.930;25.178;2023-03-14T06:09:52;0.60;1.00
11559;DHT22;5835;42.930;25.178;2023-03-14T06:12:20;0.50;1.00
11559;DHT22;5835;42.930;25.178;2023-03-14T06:14:47;0.30;99.90
11559;DHT22;5835;42.930;25.178;2023-03-14T06:17:16;0.60;99.90
11559;DHT22;5835;42.930;25.178;2023-03-14T06:19:47;0.70;1.00
11559;DHT22;5835;42.930;25.178;2023-03-14T06:22:14;0.80;99.90
11559;DHT22;5835;42.930;25.178;2023-03-14T06:24:43;1.10;99.90
11559;DHT22;5835;42.930;25.178;2023-03-14T06:27:11;1.30;3.60
11559;DHT22;5835;42.930;25.178;2023-03-14T06:29:38;1.40;1.00
11559;DHT22;5835;42.930;25.178;2023-03-14T06:32:06;1.50;50.90
11559;DHT22;5835;42.930;25.178;2023-03-14T06:34:33;1.60;99.90
11559;DHT22;5835;42.930;25.178;2023-03-14T06:37:01;1.70;99.90
11559;DHT22;5835;42.930;25.178;2023-03-14T06:39:29;1.80;99.90
11559;DHT22;5835;42.930;25.178;2023-03-14T06:41:58;1.90;99.90
11559;DHT22;5835;42.930;25.178;2023-03-14T06:44:26;2.00;1.00
11559;DHT22;5835;42.930;25.178;2023-03-14T06:46:53;2.20;99.90
11559;DHT22;5835;42.930;25.178;2023-03-14T06:49:21;2.50;99.90
11559;DHT22;5835;42.930;25.178;2023-03-14T06:51:48;2.60;54.10
11559;DHT22;5835;42.930;25.178;2023-03-14T06:54:19;2.60;93.90
11559;DHT22;5835;42.930;25.178;2023-03-14T06:56:46;2.90;99.90
11559;DHT22;5835;42.930;25.178;2023-03-14T06:59:15;3.00;99.90
11559;DHT22;5835;42.930;25.178;2023-03-14T07:01:42;3.20;99.90
11559;DHT22;5835;42.930;25.178;2023-03-14T07:04:10;3.30;99.90
11559;DHT22;5835;42.930;25.178;2023-03-14T07:06:38;3.50;99.90
11559;DHT22;5835;42.930;25.178;2023-03-14T07:09:07;3.70;99.90
11559;DHT22;5835;42.930;25.178;2023-03-14T07:11:34;4.00;36.30
11559;DHT22;5835;42.930;25.178;2023-03-14T07:14:02;4.10;1.00
11559;DHT22;5835;42.930;25.178;2023-03-14T07:16:31;4.40;1.00
11559;DHT22;5835;42.930;25.178;2023-03-14T07:18:58;4.70;1.00
11559;DHT22;5835;42.930;25.178;2023-03-14T07:21:26;4.90;1.00
11559;DHT22;5835;42.930;25.178;2023-03-14T07:23:54;5.20;99.90
11559;DHT22;5835;42.930;25.178;2023-03-14T07:26:21;5.40;99.90
11559;DHT22;5835;42.930;25.178;2023-03-14T07:28:49;5.40;99.90
11559;DHT22;5835;42.930;25.178;2023-03-14T07:31:16;5.50;99.90
11559;DHT22;5835;42.930;25.178;2023-03-14T07:33:46;5.70;99.90
11559;DHT22;5835;42.930;25.178;2023-03-14T07:36:13;5.90;99.90
11559;DHT22;5835;42.930;25.178;2023-03-14T07:38:41;6.00;99.90
11559;DHT22;5835;42.930;25.178;2023-03-14T07:41:09;6.20;99.90
11559;DHT22;5835;42.930;25.178;2023-03-14T07:43:36;6.30;99.90
11559;DHT22;5835;42.930;25.178;2023-03-14T07:46:04;6.50;99.90
11559;DHT22;5835;42.930;25.178;2023-03-14T07:48:32;6.50;91.90
11559;DHT22;5835;42.930;25.178;2023-03-14T07:51:01;6.60;85.20
11559;DHT22;5835;42.930;25.178;2023-03-14T07:53:29;6.80;54.30
11559;DHT22;5835;42.930;25.178;2023-03-14T07:55:56;6.90;28.20
11559;DHT22;5835;42.930;25.178;2023-03-14T07:58:24;7.10;17.20
11559;DHT22;5835;42.930;25.178;2023-03-14T08:00:52;7.20;1.00
11559;DHT22;5835;42.930;25.178;2023-03-14T08:03:20;7.20;1.00
11559;DHT22;5835;42.930;25.178;2023-03-14T08:05:47;7.30;1.00
11559;DHT22;5835;42.930;25.178;2023-03-14T08:08:17;7.70;1.00
11559;DHT22;5835;42.930;25.178;2023-03-14T08:10:45;7.70;1.00
11559;DHT22;5835;42.930;25.178;2023-03-14T08:13:13;7.80;1.00
11559;DHT22;5835;42.930;25.178;2023-03-14T08:15:41;7.90;1.00
11559;DHT22;5835;42.930;25.178;2023-03-14T08:18:08;7.90;1.00
11559;DHT22;5835;42.930;25.178;2023-03-14T08:20:36;8.10;1.00
11559;DHT22;5835;42.930;25.178;2023-03-14T08:23:04;8.20;1.00
11559;DHT22;5835;42.930;25.178;2023-03-14T08:25:33;8.30;1.00
11559;DHT22;5835;42.930;25.178;2023-03-14T08:28:00;8.20;1.00
11559;DHT22;5835;42.930;25.178;2023-03-14T08:30:28;8.30;1.00
11559;DHT22;5835;42.930;25.178;2023-03-14T08:32:56;8.40;1.00
11559;DHT22;5835;42.930;25.178;2023-03-14T08:35:24;8.50;1.00
11559;DHT22;5835;42.930;25.178;2023-03-14T08:37:52;8.70;1.00
11559;DHT22;5835;42.930;25.178;2023-03-14T08:40:19;9.10;1.00
11559;DHT22;5835;42.930;25.178;2023-03-14T08:42:48;8.90;1.00
11559;DHT22;5835;42.930;25.178;2023-03-14T08:45:18;8.90;1.00
11559;DHT22;5835;42.930;25.178;2023-03-14T08:47:46;9.10;1.00
11559;DHT22;5835;42.930;25.178;2023-03-14T08:50:15;9.30;1.00
11559;DHT22;5835;42.930;25.178;2023-03-14T08:52:42;9.30;1.00
11559;DHT22;5835;42.930;25.178;2023-03-14T08:55:10;9.40;1.00
11559;DHT22;5835;42.930;25.178;2023-03-14T08:57:37;9.50;1.00
11559;DHT22;5835;42.930;25.178;2023-03-14T09:00:08;9.90;1.00
11559;DHT22;5835;42.930;25.178;2023-03-14T09:02:38;10.10;1.00
11559;DHT22;5835;42.930;25.178;2023-03-14T09:05:06;10.30;1.00
11559;DHT22;5835;42.930;25.178;2023-03-14T09:07:34;10.60;1.00
11559;DHT22;5835;42.930;25.178;2023-03-14T09:10:02;10.70;1.00
11559;DHT22;5835;42.930;25.178;2023-03-14T09:12:29;10.70;1.00
11559;DHT22;5835;42.930;25.178;2023-03-14T09:14:57;11.00;1.00
11559;DHT22;5835;42.930;25.178;2023-03-14T09:17:26;11.20;1.00
11559;DHT22;5835;42.930;25.178;2023-03-14T09:19:53;11.30;1.00
11559;DHT22;5835;42.930;25.178;2023-03-14T09:22:21;11.40;1.00
11559;DHT22;5835;42.930;25.178;2023-03-14T09:24:48;11.40;1.00
11559;DHT22;5835;42.930;25.178;2023-03-14T09:27:16;11.70;1.00
11559;DHT22;5835;42.930;25.178;2023-03-14T09:29:43;12.00;1.00
11559;DHT22;5835;42.930;25.178;2023-03-14T09:32:11;12.10;1.00
11559;DHT22;5835;42.930;25.178;2023-03-14T09:34:41;12.30;1.00
11559;DHT22;5835;42.930;25.178;2023-03-14T09:37:08;12.40;1.00
11559;DHT22;5835;42.930;25.178;2023-03-14T09:39:36;12.50;1.00
11559;DHT22;5835;42.930;25.178;2023-03-14T09:42:06;12.80;1.00
11559;DHT22;5835;42.930;25.178;2023-03-14T09:44:37;13.00;1.00
11559;DHT22;5835;42.930;25.178;2023-03-14T09:47:09;13.00;1.00
11559;DHT22;5835;42.930;25.178;2023-03-14T09:49:41;13.50;1.00
11559;DHT22;5835;42.930;25.178;2023-03-14T09:52:13;13.60;1.00
11559;DHT22;5835;42.930;25.178;2023-03-14T09:54:44;13.70;1.00
11559;DHT22;5835;42.930;25.178;2023-03-14T09:57:15;13.70;1.00
11559;DHT22;5835;42.930;25.178;2023-03-14T09:59:45;13.60;1.00
11559;DHT22;5835;42.930;25.178;2023-03-14T10:02:16;14.00;1.00
11559;DHT22;5835;42.930;25.178;2023-03-14T10:04:47;14.10;1.00
11559;DHT22;5835;42.930;25.178;2023-03-14T10:07:16;14.40;1.00
11559;DHT22;5835;42.930;25.178;2023-03-14T10:09:47;14.50;1.00
11559;DHT22;5835;42.930;25.178;2023-03-14T10:12:16;14.70;1.00
11559;DHT22;5835;42.930;25.178;2023-03-14T10:14:48;14.90;1.00
11559;DHT22;5835;42.930;25.178;2023-03-14T10:17:18;15.00;1.00
11559;DHT22;5835;42.930;25.178;2023-03-14T10:19:57;15.40;1.00
11559;DHT22;5835;42.930;25.178;2023-03-14T10:22:28;15.40;1.00
11559;DHT22;5835;42.930;25.178;2023-03-14T10:24:59;15.40;1.00
11559;DHT22;5835;42.930;25.178;2023-03-14T10:27:30;15.40;1.00
11559;DHT22;5835;42.930;25.178;2023-03-14T10:30:02;15.60;1.00
11559;DHT22;5835;42.930;25.178;2023-03-14T10:32:34;16.00;1.00
11559;DHT22;5835;42.930;25.178;2023-03-14T10:35:18;15.90;1.00
11559;DHT22;5835;42.930;25.178;2023-03-14T10:37:51;16.20;1.00
11559;DHT22;5835;42.930;25.178;2023-03-14T10:40:26;16.30;1.00
11559;DHT22;5835;42.930;25.178;2023-03-14T10:42:54;16.30;1.00
11559;DHT22;5835;42.930;25.178;2023-03-14T10:45:31;16.40;1.00
11559;DHT22;5835;42.930;25.178;2023-03-14T10:48:13;16.40;1.00
11559;DHT22;5835;42.930;25.178;2023-03-14T10:50:54;16.70;1.00
11559;DHT22;5835;42.930;25.178;2023-03-14T10:53:23;16.90;1.00
11559;DHT22;5835;42.930;25.178;2023-03-14T10:55:50;17.00;1.00
11559;DHT22;5835;42.930;25.178;2023-03-14T10:58:25;17.10;1.00
11559;DHT22;5835;42.930;25.178;2023-03-14T11:01:06;17.30;1.00
11559;DHT22;5835;42.930;25.178;2023-03-14T11:03:36;17.60;1.00
11559;DHT22;5835;42.930;25.178;2023-03-14T11:06:12;17.90;1.00
11559;DHT22;5835;42.930;25.178;2023-03-14T11:08:47;17.70;1.00
11559;DHT22;5835;42.930;25.178;2023-03-14T11:11:19;18.00;1.00
11559;DHT22;5835;42.930;25.178;2023-03-14T11:13:58;18.40;1.00
11559;DHT22;5835;42.930;25.178;2023-03-14T11:16:31;18.70;1.00
11559;DHT22;5835;42.930;25.178;2023-03-14T11:19:14;18.20;1.00
11559;DHT22;5835;42.930;25.178;2023-03-14T11:21:52;18.30;1.00
11559;DHT22;5835;42.930;25.178;2023-03-14T11:24:33;18.70;1.00
11559;DHT22;5835;42.930;25.178;2023-03-14T11:27:13;19.20;1.00
11559;DHT22;5835;42.930;25.178;2023-03-14T11:29:49;19.70;1.00
11559;DHT22;5835;42.930;25.178;2023-03-14T11:32:27;19.70;1.00
11559;DHT22;5835;42.930;25.178;2023-03-14T11:35:02;19.70;1.00
11559;DHT22;5835;42.930;25.178;2023-03-14T11:37:33;19.90;1.00
11559;DHT22;5835;42.930;25.178;2023-03-14T11:40:08;20.00;1.00
11559;DHT22;5835;42.930;25.178;2023-03-14T11:42:43;19.80;1.00
11559;DHT22;5835;42.930;25.178;2023-03-14T11:45:16;20.00;1.00
11559;DHT22;5835;42.930;25.178;2023-03-14T11:47:46;20.40;1.00
11559;DHT22;5835;42.930;25.178;2023-03-14T11:50:20;20.80;1.00
11559;DHT22;5835;42.930;25.178;2023-03-14T11:52:54;20.90;1.00
11559;DHT22;5835;42.930;25.178;2023-03-14T11:55:27;20.60;1.00
11559;DHT22;5835;42.930;25.178;2023-03-14T11:57:58;20.90;1.00
11559;DHT22;5835;42.930;25.178;2023-03-14T12:00:27;21.00;1.00
11559;DHT22;5835;42.930;25.178;2023-03-14T12:03:00;21.10;1.00
11559;DHT22;5835;42.930;25.178;2023-03-14T12:05:42;21.00;1.00
11559;DHT22;5835;42.930;25.178;2023-03-14T12:08:47;21.00;1.00
11559;DHT22;5835;42.930;25.178;2023-03-14T12:11:33;21.00;1.00
11559;DHT22;5835;42.930;25.178;2023-03-14T12:14:03;21.20;1.00
11559;DHT22;5835;42.930;25.178;2023-03-14T12:16:36;21.10;1.00
11559;DHT22;5835;42.930;25.178;2023-03-14T12:19:31;21.00;1.00
11559;DHT22;5835;42.930;25.178;2023-03-14T12:22:06;21.00;1.00
11559;DHT22;5835;42.930;25.178;2023-03-14T12:24:37;21.00;1.00
11559;DHT22;5835;42.930;25.178;2023-03-14T12:27:09;21.30;1.00
11559;DHT22;5835;42.930;25.178;2023-03-14T12:29:58;20.90;1.00
11559;DHT22;5835;42.930;25.178;2023-03-14T12:32:26;20.60;1.00
11559;DHT22;5835;42.930;25.178;2023-03-14T12:34:54;20.70;1.00
11559;DHT22;5835;42.930;25.178;2023-03-14T12:37:33;21.00;1.00
11559;DHT22;5835;42.930;25.178;2023-03-14T12:40:17;20.90;1.00
11559;DHT22;5835;42.930;25.178;2023-03-14T12:42:57;21.00;1.00
11559;DHT22;5835;42.930;25.178;2023-03-14T12:45:27;20.90;1.00
11559;DHT22;5835;42.930;25.178;2023-03-14T12:48:09;21.00;1.00
11559;DHT22;5835;42.930;25.178;2023-03-14T12:50:42;21.00;1.00
11559;DHT22;5835;42.930;25.178;2023-03-14T12:56:25;20.80;1.00
11559;DHT22;5835;42.930;25.178;2023-03-14T12:59:10;20.70;1.00
11559;DHT22;5835;42.930;25.178;2023-03-14T13:01:47;20.70;1.00
11559;DHT22;5835;42.930;25.178;2023-03-14T13:04:16;20.80;1.00
11559;DHT22;5835;42.930;25.178;2023-03-14T13:06:49;20.80;1.00
11559;DHT22;5835;42.930;25.178;2023-03-14T13:09:49;21.00;1.00
11559;DHT22;5835;42.930;25.178;2023-03-14T13:12:23;20.80;1.00
11559;DHT22;5835;42.930;25.178;2023-03-14T13:14:58;20.70;1.00
11559;DHT22;5835;42.930;25.178;2023-03-14T13:17:30;20.50;1.00
11559;DHT22;5835;42.930;25.178;2023-03-14T13:20:01;20.70;1.00
11559;DHT22;5835;42.930;25.178;2023-03-14T13:22:32;20.80;1.00
11559;DHT22;5835;42.930;25.178;2023-03-14T13:25:01;20.80;1.00
11559;DHT22;5835;42.930;25.178;2023-03-14T13:27:33;20.80;1.00
11559;DHT22;5835;42.930;25.178;2023-03-14T13:30:16;20.80;1.00
11559;DHT22;5835;42.930;25.178;2023-03-14T13:32:44;20.90;1.00
11559;DHT22;5835;42.930;25.178;2023-03-14T13:35:21;20.70;1.00
11559;DHT22;5835;42.930;25.178;2023-03-14T13:37:54;20.90;1.00
11559;DHT22;5835;42.930;25.178;2023-03-14T13:40:28;20.80;1.00
11559;DHT22;5835;42.930;25.178;2023-03-14T13:43:03;20.90;1.00
11559;DHT22;5835;42.930;25.178;2023-03-14T13:45:31;20.90;1.00
11559;DHT22;5835;42.930;25.178;2023-03-14T13:47:58;20.60;1.00
11559;DHT22;5835;42.930;25.178;2023-03-14T13:50:26;20.50;1.00
11559;DHT22;5835;42.930;25.178;2023-03-14T13:53:00;20.50;1.00
11559;DHT22;5835;42.930;25.178;2023-03-14T13:55:29;20.80;1.00
11559;DHT22;5835;42.930;25.178;2023-03-14T13:58:01;20.60;1.00
11559;DHT22;5835;42.930;25.178;2023-03-14T14:00:29;20.50;1.00
11559;DHT22;5835;42.930;25.178;2023-03-14T14:02:58;20.50;1.00
11559;DHT22;5835;42.930;25.178;2023-03-14T14:05:27;20.60;1.00
11559;DHT22;5835;42.930;25.178;2023-03-14T14:07:57;20.50;1.00
11559;DHT22;5835;42.930;25.178;2023-03-14T14:10:36;20.50;1.00
11559;DHT22;5835;42.930;25.178;2023-03-14T14:13:09;20.40;1.00
11559;DHT22;5835;42.930;25.178;2023-03-14T14:15:42;20.40;1.00
11559;DHT22;5835;42.930;25.178;2023-03-14T14:18:12;20.40;1.00
11559;DHT22;5835;42.930;25.178;2023-03-14T14:20:43;20.60;1.00
11559;DHT22;5835;42.930;25.178;2023-03-14T14:23:12;20.50;1.00
11559;DHT22;5835;42.930;25.178;2023-03-14T14:25:43;20.20;1.00
11559;DHT22;5835;42.930;25.178;2023-03-14T14:28:24;20.50;1.00
11559;DHT22;5835;42.930;25.178;2023-03-14T14:31:16;20.20;1.00
11559;DHT22;5835;42.930;25.178;2023-03-14T14:33:46;20.10;1.00
11559;DHT22;5835;42.930;25.178;2023-03-14T14:36:22;20.00;1.00
11559;DHT22;5835;42.930;25.178;2023-03-14T14:38:57;19.80;1.00
11559;DHT22;5835;42.930;25.178;2023-03-14T14:41:29;19.60;1.00
11559;DHT22;5835;42.930;25.178;2023-03-14T14:43:59;19.70;1.00
11559;DHT22;5835;42.930;25.178;2023-03-14T14:46:30;19.60;1.00
11559;DHT22;5835;42.930;25.178;2023-03-14T14:49:02;19.50;1.00
11559;DHT22;5835;42.930;25.178;2023-03-14T14:51:38;19.60;1.00
11559;DHT22;5835;42.930;25.178;2023-03-14T14:54:18;19.60;1.00
11559;DHT22;5835;42.930;25.178;2023-03-14T14:56:48;19.60;1.00
11559;DHT22;5835;42.930;25.178;2023-03-14T14:59:24;19.30;1.00
11559;DHT22;5835;42.930;25.178;2023-03-14T15:01:56;19.40;1.00
11559;DHT22;5835;42.930;25.178;2023-03-14T15:04:25;19.40;1.00
11559;DHT22;5835;42.930;25.178;2023-03-14T15:06:55;19.50;1.00
11559;DHT22;5835;42.930;25.178;2023-03-14T15:09:23;19.00;1.00
11559;DHT22;5835;42.930;25.178;2023-03-14T15:11:51;18.90;1.00
11559;DHT22;5835;42.930;25.178;2023-03-14T15:14:18;18.80;1.00
11559;DHT22;5835;42.930;25.178;2023-03-14T15:16:47;18.40;1.00
11559;DHT22;5835;42.930;25.178;2023-03-14T15:19:19;18.40;1.00
11559;DHT22;5835;42.930;25.178;2023-03-14T15:21:47;18.40;1.00
11559;DHT22;5835;42.930;25.178;2023-03-14T15:24:14;18.30;1.00
11559;DHT22;5835;42.930;25.178;2023-03-14T15:26:42;18.10;1.00
11559;DHT22;5835;42.930;25.178;2023-03-14T15:29:11;17.90;1.00
11559;DHT22;5835;42.930;25.178;2023-03-14T15:31:38;17.60;1.00
11559;DHT22;5835;42.930;25.178;2023-03-14T15:34:08;17.50;1.00
11559;DHT22;5835;42.930;25.178;2023-03-14T15:36:36;17.30;1.00
11559;DHT22;5835;42.930;25.178;2023-03-14T15:39:05;17.00;1.00
11559;DHT22;5835;42.930;25.178;2023-03-14T15:41:33;16.80;1.00
11559;DHT22;5835;42.930;25.178;2023-03-14T15:44:01;16.90;1.00
11559;DHT22;5835;42.930;25.178;2023-03-14T15:46:28;16.70;1.00
11559;DHT22;5835;42.930;25.178;2023-03-14T15:48:56;16.60;1.00
11559;DHT22;5835;42.930;25.178;2023-03-14T15:51:28;16.40;1.00
11559;DHT22;5835;42.930;25.178;2023-03-14T15:53:55;16.30;1.00
11559;DHT22;5835;42.930;25.178;2023-03-14T15:56:23;16.00;1.00
11559;DHT22;5835;42.930;25.178;2023-03-14T15:58:52;16.10;1.00
11559;DHT22;5835;42.930;25.178;2023-03-14T16:01:19;15.80;1.00
11559;DHT22;5835;42.930;25.178;2023-03-14T16:03:47;15.80;1.00
11559;DHT22;5835;42.930;25.178;2023-03-14T16:06:18;15.60;1.00
11559;DHT22;5835;42.930;25.178;2023-03-14T16:08:47;15.40;1.00
11559;DHT22;5835;42.930;25.178;2023-03-14T16:11:15;15.10;1.00